Pagrindinis puslapis
METAR-TAF:

METAR-TAF

Oro uostai :

Kosraė, Mikronezija

platuma: 05-21N, ilguma: 162-57E, Aukštis: 3 m

Dabartinis oras

Ataskaita buvo paskelbta 5 valandos ir 16 minutes, ne 03:55 UTC
Vėjas 14 kt iš Pietų
Temperatūra 26°C
Drėgmė 89%
Slėgis 1008 hPa
Matomumas: 16.1 km
Su prošvaistėmis ne aukštis 1600 ft
Su prošvaistėmis ne aukštis 13000 ft
Apsiniaukę ne aukštis 30000 ft

METAR: PTSA 220355Z 18014KT 10SM BKN016 BKN130 OVC300 26/24 A2978 RMK LAST

Laikas: 20:11 (09:11 UTC)

Prognozė

Ataskaita buvo paskelbta 3 valandos ir 51 minutes, ne 05:20 UTC
Prognozė galioja nuo 22 metu 06 UTC su 23 metu 06 UTC
Vėjas 8 kt iš Pietryčių
Matomumas: 10 km
Išsisklaidę debesys ne aukštis 1500 ft
Su prošvaistėmis ne aukštis 11000 ft
Liūtis kaimynystėje
Laikinai
nuo 22 metu 06 UTC su 22 metu 08 UTC
Vėjas 10 kt nuo kintamojo kryptimis su gūsio iki 18 kt
Matomumas: 8.0 km
Su prošvaistėmis ne aukštis 1500 ft
lietus,

TAF: PTSA 220520Z 2206/2306 13008KT P6SM VCSH SCT015 BKN110 TEMPO 2206/2208 VRB10G18KT 5SM -SHRA BKN015

Orai ataskaitas ir orų prognozės (METAR, TAF).

turimą stotys yra geltonos ir raudonos taškus žemėlapyje.

Perkelti pele per norėdami pamatyti stoties vardą.

Tada spustelėkite, norėdami matyti oro stebėjimo ir prognozės.

Norėdami pakeisti žemėlapį: spustelėkite ant žalios mygtukų su juodo kryžiaus žemyn,; žalią mygtuką su brūkšneliu, jei norite nutolinti; arba žalių rodyklių gretimoms žemėlapius.


METAR-TAF: